sensor_id;sensor_type;location;lat;lon;timestamp;P1;durP1;ratioP1;P2;durP2;ratioP2
30247;SDS011;17063;50.892;4.702;2023-07-13T00:00:38;4.23;;;1.20;;
30247;SDS011;17063;50.892;4.702;2023-07-13T00:03:05;3.70;;;1.33;;
30247;SDS011;17063;50.892;4.702;2023-07-13T00:05:32;2.83;;;1.10;;
30247;SDS011;17063;50.892;4.702;2023-07-13T00:07:59;5.07;;;1.20;;
30247;SDS011;17063;50.892;4.702;2023-07-13T00:10:26;9.23;;;1.70;;
30247;SDS011;17063;50.892;4.702;2023-07-13T00:12:53;3.23;;;1.27;;
30247;SDS011;17063;50.892;4.702;2023-07-13T00:15:22;5.23;;;1.40;;
30247;SDS011;17063;50.892;4.702;2023-07-13T00:17:52;8.33;;;1.50;;
30247;SDS011;17063;50.892;4.702;2023-07-13T00:20:20;5.73;;;1.90;;
30247;SDS011;17063;50.892;4.702;2023-07-13T00:22:49;4.63;;;1.50;;
30247;SDS011;17063;50.892;4.702;2023-07-13T00:25:16;3.20;;;1.27;;
30247;SDS011;17063;50.892;4.702;2023-07-13T00:27:43;5.33;;;1.20;;
30247;SDS011;17063;50.892;4.702;2023-07-13T00:30:11;6.57;;;1.43;;
30247;SDS011;17063;50.892;4.702;2023-07-13T00:32:38;6.43;;;1.23;;
30247;SDS011;17063;50.892;4.702;2023-07-13T00:35:05;7.37;;;1.40;;
30247;SDS011;17063;50.892;4.702;2023-07-13T00:37:32;5.43;;;1.47;;
30247;SDS011;17063;50.892;4.702;2023-07-13T00:40:00;7.83;;;1.50;;
30247;SDS011;17063;50.892;4.702;2023-07-13T00:42:27;9.53;;;1.87;;
30247;SDS011;17063;50.892;4.702;2023-07-13T00:47:47;6.67;;;1.80;;
30247;SDS011;17063;50.892;4.702;2023-07-13T00:50:14;8.83;;;1.63;;
30247;SDS011;17063;50.892;4.702;2023-07-13T00:52:44;4.37;;;1.50;;
30247;SDS011;17063;50.892;4.702;2023-07-13T00:55:14;4.47;;;1.37;;
30247;SDS011;17063;50.892;4.702;2023-07-13T00:57:42;5.23;;;1.47;;
30247;SDS011;17063;50.892;4.702;2023-07-13T01:00:10;7.17;;;1.40;;
30247;SDS011;17063;50.892;4.702;2023-07-13T01:02:40;5.17;;;1.60;;
30247;SDS011;17063;50.892;4.702;2023-07-13T01:05:15;5.93;;;1.47;;
30247;SDS011;17063;50.892;4.702;2023-07-13T01:07:44;6.57;;;1.33;;
30247;SDS011;17063;50.892;4.702;2023-07-13T01:10:12;4.97;;;1.50;;
30247;SDS011;17063;50.892;4.702;2023-07-13T01:12:39;7.70;;;1.60;;
30247;SDS011;17063;50.892;4.702;2023-07-13T01:18:14;11.47;;;1.50;;
30247;SDS011;17063;50.892;4.702;2023-07-13T01:21:03;7.40;;;1.90;;
30247;SDS011;17063;50.892;4.702;2023-07-13T01:23:31;7.80;;;1.53;;
30247;SDS011;17063;50.892;4.702;2023-07-13T01:25:58;3.80;;;1.73;;
30247;SDS011;17063;50.892;4.702;2023-07-13T01:28:26;7.23;;;1.77;;
30247;SDS011;17063;50.892;4.702;2023-07-13T01:30:54;5.27;;;1.73;;
30247;SDS011;17063;50.892;4.702;2023-07-13T01:33:22;3.93;;;1.40;;
30247;SDS011;17063;50.892;4.702;2023-07-13T01:35:49;7.77;;;1.43;;
30247;SDS011;17063;50.892;4.702;2023-07-13T01:38:17;4.33;;;1.60;;
30247;SDS011;17063;50.892;4.702;2023-07-13T01:40:46;7.93;;;1.60;;
30247;SDS011;17063;50.892;4.702;2023-07-13T01:43:12;7.23;;;1.53;;
30247;SDS011;17063;50.892;4.702;2023-07-13T01:45:39;3.83;;;1.43;;
30247;SDS011;17063;50.892;4.702;2023-07-13T01:48:08;2.77;;;1.40;;
30247;SDS011;17063;50.892;4.702;2023-07-13T01:50:35;7.57;;;1.87;;
30247;SDS011;17063;50.892;4.702;2023-07-13T01:53:02;9.77;;;1.97;;
30247;SDS011;17063;50.892;4.702;2023-07-13T01:55:29;6.60;;;1.83;;
30247;SDS011;17063;50.892;4.702;2023-07-13T01:57:56;7.47;;;2.33;;
30247;SDS011;17063;50.892;4.702;2023-07-13T02:00:23;8.37;;;1.70;;
30247;SDS011;17063;50.892;4.702;2023-07-13T02:02:51;6.03;;;1.30;;
30247;SDS011;17063;50.892;4.702;2023-07-13T02:05:18;6.07;;;1.67;;
30247;SDS011;17063;50.892;4.702;2023-07-13T02:07:46;6.57;;;1.73;;
30247;SDS011;17063;50.892;4.702;2023-07-13T02:10:13;4.60;;;1.57;;
30247;SDS011;17063;50.892;4.702;2023-07-13T02:12:40;5.37;;;1.63;;
30247;SDS011;17063;50.892;4.702;2023-07-13T02:15:08;4.33;;;1.40;;
30247;SDS011;17063;50.892;4.702;2023-07-13T02:17:36;9.30;;;1.97;;
30247;SDS011;17063;50.892;4.702;2023-07-13T02:20:03;3.43;;;1.40;;
30247;SDS011;17063;50.892;4.702;2023-07-13T02:22:31;9.00;;;1.70;;
30247;SDS011;17063;50.892;4.702;2023-07-13T02:24:58;9.57;;;1.80;;
30247;SDS011;17063;50.892;4.702;2023-07-13T02:27:25;8.83;;;1.40;;
30247;SDS011;17063;50.892;4.702;2023-07-13T02:29:52;8.90;;;1.90;;
30247;SDS011;17063;50.892;4.702;2023-07-13T02:32:20;5.83;;;1.63;;
30247;SDS011;17063;50.892;4.702;2023-07-13T02:34:50;6.67;;;1.63;;
30247;SDS011;17063;50.892;4.702;2023-07-13T02:37:17;9.20;;;1.70;;
30247;SDS011;17063;50.892;4.702;2023-07-13T02:39:44;7.63;;;1.67;;
30247;SDS011;17063;50.892;4.702;2023-07-13T02:42:11;5.50;;;1.70;;
30247;SDS011;17063;50.892;4.702;2023-07-13T02:44:37;6.53;;;2.00;;
30247;SDS011;17063;50.892;4.702;2023-07-13T02:47:04;7.00;;;1.73;;
30247;SDS011;17063;50.892;4.702;2023-07-13T02:49:32;5.37;;;1.67;;
30247;SDS011;17063;50.892;4.702;2023-07-13T02:51:58;6.80;;;1.50;;
30247;SDS011;17063;50.892;4.702;2023-07-13T02:54:26;10.67;;;2.10;;
30247;SDS011;17063;50.892;4.702;2023-07-13T02:56:52;7.60;;;2.00;;
30247;SDS011;17063;50.892;4.702;2023-07-13T02:59:19;13.93;;;2.67;;
30247;SDS011;17063;50.892;4.702;2023-07-13T03:01:46;7.20;;;1.93;;
30247;SDS011;17063;50.892;4.702;2023-07-13T03:04:13;11.23;;;1.73;;
30247;SDS011;17063;50.892;4.702;2023-07-13T03:06:40;6.77;;;1.70;;
30247;SDS011;17063;50.892;4.702;2023-07-13T03:09:08;10.20;;;1.70;;
30247;SDS011;17063;50.892;4.702;2023-07-13T03:11:38;7.30;;;1.90;;
30247;SDS011;17063;50.892;4.702;2023-07-13T03:14:16;7.87;;;2.10;;
30247;SDS011;17063;50.892;4.702;2023-07-13T03:16:43;5.93;;;1.83;;
30247;SDS011;17063;50.892;4.702;2023-07-13T03:19:11;5.87;;;1.60;;
30247;SDS011;17063;50.892;4.702;2023-07-13T03:21:38;8.17;;;1.80;;
30247;SDS011;17063;50.892;4.702;2023-07-13T03:24:05;11.73;;;2.30;;
30247;SDS011;17063;50.892;4.702;2023-07-13T03:26:33;8.97;;;2.00;;
30247;SDS011;17063;50.892;4.702;2023-07-13T03:29:01;7.00;;;1.90;;
30247;SDS011;17063;50.892;4.702;2023-07-13T03:31:29;10.53;;;2.57;;
30247;SDS011;17063;50.892;4.702;2023-07-13T03:33:59;7.70;;;1.80;;
30247;SDS011;17063;50.892;4.702;2023-07-13T03:36:29;7.80;;;1.70;;
30247;SDS011;17063;50.892;4.702;2023-07-13T03:39:01;5.20;;;1.70;;
30247;SDS011;17063;50.892;4.702;2023-07-13T03:41:39;10.27;;;2.10;;
30247;SDS011;17063;50.892;4.702;2023-07-13T03:44:07;9.73;;;2.23;;
30247;SDS011;17063;50.892;4.702;2023-07-13T03:46:34;10.53;;;2.03;;
30247;SDS011;17063;50.892;4.702;2023-07-13T03:49:01;5.53;;;2.17;;
30247;SDS011;17063;50.892;4.702;2023-07-13T03:51:28;6.10;;;1.60;;
30247;SDS011;17063;50.892;4.702;2023-07-13T03:53:55;6.83;;;2.10;;
30247;SDS011;17063;50.892;4.702;2023-07-13T03:56:22;7.67;;;1.70;;
30247;SDS011;17063;50.892;4.702;2023-07-13T03:58:50;5.70;;;1.50;;
30247;SDS011;17063;50.892;4.702;2023-07-13T04:01:19;8.93;;;2.20;;
30247;SDS011;17063;50.892;4.702;2023-07-13T04:03:48;6.13;;;1.70;;
30247;SDS011;17063;50.892;4.702;2023-07-13T04:06:16;4.70;;;1.63;;
30247;SDS011;17063;50.892;4.702;2023-07-13T04:08:49;10.30;;;2.40;;
30247;SDS011;17063;50.892;4.702;2023-07-13T04:11:17;10.90;;;1.83;;
30247;SDS011;17063;50.892;4.702;2023-07-13T04:13:45;9.20;;;1.80;;
30247;SDS011;17063;50.892;4.702;2023-07-13T04:16:13;8.27;;;1.93;;
30247;SDS011;17063;50.892;4.702;2023-07-13T04:18:41;12.93;;;1.70;;
30247;SDS011;17063;50.892;4.702;2023-07-13T04:21:08;10.67;;;2.03;;
30247;SDS011;17063;50.892;4.702;2023-07-13T04:23:36;7.73;;;2.00;;
30247;SDS011;17063;50.892;4.702;2023-07-13T04:26:03;8.90;;;2.67;;
30247;SDS011;17063;50.892;4.702;2023-07-13T04:28:31;10.17;;;2.10;;
30247;SDS011;17063;50.892;4.702;2023-07-13T04:30:58;7.07;;;1.70;;
30247;SDS011;17063;50.892;4.702;2023-07-13T04:33:25;7.00;;;1.70;;
30247;SDS011;17063;50.892;4.702;2023-07-13T04:35:53;10.87;;;2.17;;
30247;SDS011;17063;50.892;4.702;2023-07-13T04:38:23;8.13;;;2.10;;
30247;SDS011;17063;50.892;4.702;2023-07-13T04:40:57;8.43;;;2.00;;
30247;SDS011;17063;50.892;4.702;2023-07-13T04:43:29;8.33;;;2.53;;
30247;SDS011;17063;50.892;4.702;2023-07-13T04:46:02;12.77;;;2.30;;
30247;SDS011;17063;50.892;4.702;2023-07-13T04:48:33;8.63;;;2.00;;
30247;SDS011;17063;50.892;4.702;2023-07-13T04:51:01;8.90;;;1.83;;
30247;SDS011;17063;50.892;4.702;2023-07-13T04:53:28;13.00;;;2.53;;
30247;SDS011;17063;50.892;4.702;2023-07-13T04:55:56;13.07;;;2.10;;
30247;SDS011;17063;50.892;4.702;2023-07-13T04:58:23;7.60;;;2.03;;
30247;SDS011;17063;50.892;4.702;2023-07-13T05:00:50;10.40;;;2.47;;
30247;SDS011;17063;50.892;4.702;2023-07-13T05:03:17;8.80;;;2.20;;
30247;SDS011;17063;50.892;4.702;2023-07-13T05:05:54;12.93;;;2.77;;
30247;SDS011;17063;50.892;4.702;2023-07-13T05:08:24;9.20;;;1.80;;
30247;SDS011;17063;50.892;4.702;2023-07-13T05:10:51;10.20;;;2.37;;
30247;SDS011;17063;50.892;4.702;2023-07-13T05:13:19;14.03;;;2.30;;
30247;SDS011;17063;50.892;4.702;2023-07-13T05:15:47;8.93;;;2.20;;
30247;SDS011;17063;50.892;4.702;2023-07-13T05:18:15;6.53;;;2.07;;
30247;SDS011;17063;50.892;4.702;2023-07-13T05:20:41;10.60;;;2.53;;
30247;SDS011;17063;50.892;4.702;2023-07-13T05:23:08;4.73;;;2.17;;
30247;SDS011;17063;50.892;4.702;2023-07-13T05:25:35;11.70;;;2.50;;
30247;SDS011;17063;50.892;4.702;2023-07-13T05:28:02;6.60;;;2.10;;
30247;SDS011;17063;50.892;4.702;2023-07-13T05:30:29;8.77;;;2.13;;
30247;SDS011;17063;50.892;4.702;2023-07-13T05:32:56;8.77;;;1.80;;
30247;SDS011;17063;50.892;4.702;2023-07-13T05:35:22;11.40;;;2.47;;
30247;SDS011;17063;50.892;4.702;2023-07-13T05:37:49;18.43;;;2.73;;
30247;SDS011;17063;50.892;4.702;2023-07-13T05:40:16;8.70;;;2.37;;
30247;SDS011;17063;50.892;4.702;2023-07-13T05:42:44;15.20;;;2.77;;
30247;SDS011;17063;50.892;4.702;2023-07-13T05:45:11;12.97;;;3.10;;
30247;SDS011;17063;50.892;4.702;2023-07-13T05:47:37;14.03;;;2.80;;
30247;SDS011;17063;50.892;4.702;2023-07-13T05:50:04;13.43;;;2.70;;
30247;SDS011;17063;50.892;4.702;2023-07-13T05:52:32;9.17;;;2.17;;
30247;SDS011;17063;50.892;4.702;2023-07-13T05:54:59;7.77;;;2.33;;
30247;SDS011;17063;50.892;4.702;2023-07-13T05:57:25;14.63;;;2.87;;
30247;SDS011;17063;50.892;4.702;2023-07-13T05:59:52;18.33;;;2.80;;
30247;SDS011;17063;50.892;4.702;2023-07-13T06:02:19;10.63;;;2.53;;
30247;SDS011;17063;50.892;4.702;2023-07-13T06:04:46;10.10;;;2.63;;
30247;SDS011;17063;50.892;4.702;2023-07-13T06:07:16;9.00;;;2.07;;
30247;SDS011;17063;50.892;4.702;2023-07-13T06:09:43;13.10;;;2.80;;
30247;SDS011;17063;50.892;4.702;2023-07-13T06:12:09;15.83;;;2.70;;
30247;SDS011;17063;50.892;4.702;2023-07-13T06:14:36;13.87;;;2.50;;
30247;SDS011;17063;50.892;4.702;2023-07-13T06:17:03;16.40;;;2.80;;
30247;SDS011;17063;50.892;4.702;2023-07-13T06:19:30;12.87;;;2.50;;
30247;SDS011;17063;50.892;4.702;2023-07-13T06:21:57;11.33;;;2.33;;
30247;SDS011;17063;50.892;4.702;2023-07-13T06:24:25;7.10;;;2.33;;
30247;SDS011;17063;50.892;4.702;2023-07-13T06:26:52;21.53;;;2.60;;
30247;SDS011;17063;50.892;4.702;2023-07-13T06:29:19;13.23;;;2.47;;
30247;SDS011;17063;50.892;4.702;2023-07-13T06:31:46;12.90;;;2.60;;
30247;SDS011;17063;50.892;4.702;2023-07-13T06:34:13;10.37;;;2.23;;
30247;SDS011;17063;50.892;4.702;2023-07-13T06:36:39;9.13;;;2.10;;
30247;SDS011;17063;50.892;4.702;2023-07-13T06:39:06;11.87;;;2.57;;
30247;SDS011;17063;50.892;4.702;2023-07-13T06:41:33;11.70;;;2.50;;
30247;SDS011;17063;50.892;4.702;2023-07-13T06:44:01;15.43;;;2.60;;
30247;SDS011;17063;50.892;4.702;2023-07-13T06:46:28;8.57;;;2.03;;
30247;SDS011;17063;50.892;4.702;2023-07-13T06:48:56;11.20;;;2.70;;
30247;SDS011;17063;50.892;4.702;2023-07-13T06:51:23;9.03;;;2.17;;
30247;SDS011;17063;50.892;4.702;2023-07-13T06:53:50;10.27;;;2.83;;
30247;SDS011;17063;50.892;4.702;2023-07-13T06:56:17;10.10;;;2.63;;
30247;SDS011;17063;50.892;4.702;2023-07-13T06:58:44;15.43;;;2.70;;
30247;SDS011;17063;50.892;4.702;2023-07-13T07:01:10;12.90;;;2.90;;
30247;SDS011;17063;50.892;4.702;2023-07-13T07:03:38;12.93;;;2.70;;
30247;SDS011;17063;50.892;4.702;2023-07-13T07:06:13;10.87;;;3.00;;
30247;SDS011;17063;50.892;4.702;2023-07-13T07:08:42;14.10;;;2.67;;
30247;SDS011;17063;50.892;4.702;2023-07-13T07:11:11;12.27;;;2.70;;
30247;SDS011;17063;50.892;4.702;2023-07-13T07:13:39;9.30;;;2.60;;
30247;SDS011;17063;50.892;4.702;2023-07-13T07:16:07;13.30;;;2.70;;
30247;SDS011;17063;50.892;4.702;2023-07-13T07:18:35;7.63;;;2.50;;
30247;SDS011;17063;50.892;4.702;2023-07-13T07:21:03;9.17;;;2.27;;
30247;SDS011;17063;50.892;4.702;2023-07-13T07:23:30;11.67;;;2.67;;
30247;SDS011;17063;50.892;4.702;2023-07-13T07:25:58;12.10;;;2.60;;
30247;SDS011;17063;50.892;4.702;2023-07-13T07:28:25;11.20;;;3.00;;
30247;SDS011;17063;50.892;4.702;2023-07-13T07:31:11;9.10;;;2.50;;
30247;SDS011;17063;50.892;4.702;2023-07-13T07:33:41;9.37;;;2.73;;
30247;SDS011;17063;50.892;4.702;2023-07-13T07:36:09;10.70;;;2.73;;
30247;SDS011;17063;50.892;4.702;2023-07-13T07:38:39;10.90;;;2.10;;
30247;SDS011;17063;50.892;4.702;2023-07-13T07:41:07;15.10;;;3.10;;
30247;SDS011;17063;50.892;4.702;2023-07-13T07:43:37;11.13;;;2.60;;
30247;SDS011;17063;50.892;4.702;2023-07-13T07:46:04;11.77;;;2.87;;
30247;SDS011;17063;50.892;4.702;2023-07-13T07:48:31;9.73;;;2.80;;
30247;SDS011;17063;50.892;4.702;2023-07-13T07:50:58;12.07;;;2.70;;
30247;SDS011;17063;50.892;4.702;2023-07-13T07:53:25;11.57;;;2.33;;
30247;SDS011;17063;50.892;4.702;2023-07-13T07:55:52;14.23;;;2.37;;
30247;SDS011;17063;50.892;4.702;2023-07-13T07:58:22;10.07;;;2.47;;
30247;SDS011;17063;50.892;4.702;2023-07-13T08:00:52;13.93;;;2.97;;
30247;SDS011;17063;50.892;4.702;2023-07-13T08:03:30;8.40;;;2.13;;
30247;SDS011;17063;50.892;4.702;2023-07-13T08:06:13;9.70;;;2.30;;
30247;SDS011;17063;50.892;4.702;2023-07-13T08:09:05;5.27;;;2.13;;
30247;SDS011;17063;50.892;4.702;2023-07-13T08:11:41;8.20;;;2.17;;
30247;SDS011;17063;50.892;4.702;2023-07-13T08:14:20;16.10;;;2.43;;
30247;SDS011;17063;50.892;4.702;2023-07-13T08:17:17;10.67;;;2.30;;
30247;SDS011;17063;50.892;4.702;2023-07-13T08:19:46;10.70;;;2.30;;
30247;SDS011;17063;50.892;4.702;2023-07-13T08:22:13;13.47;;;2.47;;
30247;SDS011;17063;50.892;4.702;2023-07-13T08:24:42;8.70;;;2.50;;
30247;SDS011;17063;50.892;4.702;2023-07-13T08:27:10;10.20;;;2.47;;
30247;SDS011;17063;50.892;4.702;2023-07-13T08:29:38;6.10;;;2.07;;
30247;SDS011;17063;50.892;4.702;2023-07-13T08:32:06;10.67;;;2.37;;
30247;SDS011;17063;50.892;4.702;2023-07-13T08:34:36;11.47;;;2.50;;
30247;SDS011;17063;50.892;4.702;2023-07-13T08:37:07;9.27;;;2.50;;
30247;SDS011;17063;50.892;4.702;2023-07-13T08:39:34;8.00;;;2.10;;
30247;SDS011;17063;50.892;4.702;2023-07-13T08:42:04;13.17;;;2.50;;
30247;SDS011;17063;50.892;4.702;2023-07-13T08:44:40;8.47;;;2.23;;
30247;SDS011;17063;50.892;4.702;2023-07-13T08:47:19;7.10;;;1.93;;
30247;SDS011;17063;50.892;4.702;2023-07-13T08:49:54;6.90;;;1.90;;
30247;SDS011;17063;50.892;4.702;2023-07-13T08:52:37;7.17;;;1.93;;
30247;SDS011;17063;50.892;4.702;2023-07-13T08:55:15;8.47;;;2.30;;
30247;SDS011;17063;50.892;4.702;2023-07-13T09:01:12;7.13;;;2.07;;
30247;SDS011;17063;50.892;4.702;2023-07-13T09:06:39;7.50;;;1.80;;
30247;SDS011;17063;50.892;4.702;2023-07-13T09:09:24;8.03;;;2.27;;
30247;SDS011;17063;50.892;4.702;2023-07-13T09:12:20;5.13;;;1.80;;
30247;SDS011;17063;50.892;4.702;2023-07-13T09:14:53;7.97;;;1.73;;
30247;SDS011;17063;50.892;4.702;2023-07-13T09:17:55;7.20;;;2.27;;
30247;SDS011;17063;50.892;4.702;2023-07-13T09:22:46;6.73;;;1.93;;
30247;SDS011;17063;50.892;4.702;2023-07-13T09:25:23;6.07;;;1.90;;
30247;SDS011;17063;50.892;4.702;2023-07-13T09:27:53;5.03;;;1.80;;
30247;SDS011;17063;50.892;4.702;2023-07-13T09:30:32;6.00;;;1.97;;
30247;SDS011;17063;50.892;4.702;2023-07-13T09:33:13;5.23;;;2.03;;
30247;SDS011;17063;50.892;4.702;2023-07-13T09:35:40;3.27;;;1.50;;
30247;SDS011;17063;50.892;4.702;2023-07-13T09:38:16;6.83;;;1.47;;
30247;SDS011;17063;50.892;4.702;2023-07-13T09:41:08;5.97;;;1.40;;
30247;SDS011;17063;50.892;4.702;2023-07-13T09:47:29;7.30;;;1.73;;
30247;SDS011;17063;50.892;4.702;2023-07-13T09:50:08;7.57;;;1.80;;
30247;SDS011;17063;50.892;4.702;2023-07-13T09:52:44;6.70;;;1.60;;
30247;SDS011;17063;50.892;4.702;2023-07-13T09:55:30;6.20;;;1.70;;
30247;SDS011;17063;50.892;4.702;2023-07-13T10:00:39;5.20;;;1.80;;
30247;SDS011;17063;50.892;4.702;2023-07-13T10:03:17;6.63;;;1.87;;
30247;SDS011;17063;50.892;4.702;2023-07-13T10:05:50;4.50;;;1.70;;
30247;SDS011;17063;50.892;4.702;2023-07-13T10:08:19;5.60;;;1.90;;
30247;SDS011;17063;50.892;4.702;2023-07-13T10:11:02;8.93;;;1.77;;
30247;SDS011;17063;50.892;4.702;2023-07-13T10:14:12;10.43;;;1.80;;
30247;SDS011;17063;50.892;4.702;2023-07-13T10:16:45;5.03;;;1.47;;
30247;SDS011;17063;50.892;4.702;2023-07-13T10:22:29;7.57;;;1.87;;
30247;SDS011;17063;50.892;4.702;2023-07-13T10:25:23;3.43;;;1.40;;
30247;SDS011;17063;50.892;4.702;2023-07-13T10:27:53;5.67;;;1.50;;
30247;SDS011;17063;50.892;4.702;2023-07-13T10:30:27;5.33;;;1.57;;
30247;SDS011;17063;50.892;4.702;2023-07-13T10:32:58;9.27;;;1.63;;
30247;SDS011;17063;50.892;4.702;2023-07-13T10:35:28;4.57;;;1.70;;
30247;SDS011;17063;50.892;4.702;2023-07-13T10:38:03;4.07;;;1.40;;
30247;SDS011;17063;50.892;4.702;2023-07-13T10:40:41;6.73;;;1.87;;
30247;SDS011;17063;50.892;4.702;2023-07-13T10:43:22;6.13;;;1.53;;
30247;SDS011;17063;50.892;4.702;2023-07-13T10:45:53;5.87;;;1.77;;
30247;SDS011;17063;50.892;4.702;2023-07-13T10:48:21;3.57;;;1.63;;
30247;SDS011;17063;50.892;4.702;2023-07-13T10:50:51;4.73;;;1.67;;
30247;SDS011;17063;50.892;4.702;2023-07-13T10:53:28;5.50;;;1.80;;
30247;SDS011;17063;50.892;4.702;2023-07-13T10:56:04;5.00;;;1.43;;
30247;SDS011;17063;50.892;4.702;2023-07-13T10:58:38;4.27;;;1.83;;
30247;SDS011;17063;50.892;4.702;2023-07-13T11:01:14;6.23;;;1.83;;
30247;SDS011;17063;50.892;4.702;2023-07-13T11:03:47;6.77;;;1.53;;
30247;SDS011;17063;50.892;4.702;2023-07-13T11:06:28;3.53;;;1.50;;
30247;SDS011;17063;50.892;4.702;2023-07-13T11:15:06;6.00;;;1.67;;
30247;SDS011;17063;50.892;4.702;2023-07-13T11:17:48;5.63;;;1.30;;
30247;SDS011;17063;50.892;4.702;2023-07-13T11:22:51;6.27;;;1.33;;
30247;SDS011;17063;50.892;4.702;2023-07-13T11:27:51;4.20;;;1.30;;
30247;SDS011;17063;50.892;4.702;2023-07-13T11:35:49;6.40;;;1.63;;
30247;SDS011;17063;50.892;4.702;2023-07-13T11:38:27;6.93;;;1.60;;
30247;SDS011;17063;50.892;4.702;2023-07-13T11:40:55;4.10;;;1.30;;
30247;SDS011;17063;50.892;4.702;2023-07-13T11:43:22;4.53;;;1.27;;
30247;SDS011;17063;50.892;4.702;2023-07-13T11:45:52;3.33;;;1.37;;
30247;SDS011;17063;50.892;4.702;2023-07-13T11:48:20;3.53;;;1.30;;
30247;SDS011;17063;50.892;4.702;2023-07-13T11:50:54;6.00;;;1.57;;
30247;SDS011;17063;50.892;4.702;2023-07-13T11:53:23;5.67;;;1.40;;
30247;SDS011;17063;50.892;4.702;2023-07-13T11:55:53;3.47;;;1.10;;
30247;SDS011;17063;50.892;4.702;2023-07-13T11:58:21;4.73;;;1.00;;
30247;SDS011;17063;50.892;4.702;2023-07-13T12:00:51;2.33;;;1.27;;
30247;SDS011;17063;50.892;4.702;2023-07-13T12:03:22;7.77;;;1.40;;
30247;SDS011;17063;50.892;4.702;2023-07-13T12:06:03;4.57;;;1.33;;
30247;SDS011;17063;50.892;4.702;2023-07-13T12:08:37;4.00;;;1.00;;
30247;SDS011;17063;50.892;4.702;2023-07-13T12:11:14;3.50;;;1.37;;
30247;SDS011;17063;50.892;4.702;2023-07-13T12:13:43;4.37;;;1.33;;
30247;SDS011;17063;50.892;4.702;2023-07-13T12:16:14;3.27;;;1.17;;
30247;SDS011;17063;50.892;4.702;2023-07-13T12:18:45;3.23;;;1.50;;
30247;SDS011;17063;50.892;4.702;2023-07-13T12:21:16;4.73;;;1.23;;
30247;SDS011;17063;50.892;4.702;2023-07-13T12:23:44;3.77;;;1.33;;
30247;SDS011;17063;50.892;4.702;2023-07-13T12:26:15;3.83;;;1.20;;
30247;SDS011;17063;50.892;4.702;2023-07-13T12:28:53;8.33;;;1.70;;
30247;SDS011;17063;50.892;4.702;2023-07-13T12:31:24;3.47;;;1.23;;
30247;SDS011;17063;50.892;4.702;2023-07-13T12:34:05;3.80;;;1.30;;
30247;SDS011;17063;50.892;4.702;2023-07-13T12:37:02;3.60;;;1.40;;
30247;SDS011;17063;50.892;4.702;2023-07-13T12:42:53;4.50;;;1.30;;
30247;SDS011;17063;50.892;4.702;2023-07-13T12:45:25;2.63;;;1.37;;
30247;SDS011;17063;50.892;4.702;2023-07-13T12:47:56;4.73;;;1.37;;
30247;SDS011;17063;50.892;4.702;2023-07-13T12:50:34;4.07;;;1.30;;
30247;SDS011;17063;50.892;4.702;2023-07-13T12:53:15;2.40;;;1.20;;
30247;SDS011;17063;50.892;4.702;2023-07-13T12:55:47;3.90;;;1.40;;
30247;SDS011;17063;50.892;4.702;2023-07-13T12:58:25;4.20;;;1.47;;
30247;SDS011;17063;50.892;4.702;2023-07-13T13:00:59;3.93;;;1.70;;
30247;SDS011;17063;50.892;4.702;2023-07-13T13:03:31;4.60;;;1.70;;
30247;SDS011;17063;50.892;4.702;2023-07-13T13:06:01;6.13;;;1.50;;
30247;SDS011;17063;50.892;4.702;2023-07-13T13:08:31;4.13;;;1.50;;
30247;SDS011;17063;50.892;4.702;2023-07-13T13:11:00;3.50;;;1.27;;
30247;SDS011;17063;50.892;4.702;2023-07-13T13:13:28;7.57;;;1.87;;
30247;SDS011;17063;50.892;4.702;2023-07-13T13:15:55;2.00;;;1.50;;
30247;SDS011;17063;50.892;4.702;2023-07-13T13:18:23;5.93;;;1.33;;
30247;SDS011;17063;50.892;4.702;2023-07-13T13:20:51;2.97;;;1.10;;
30247;SDS011;17063;50.892;4.702;2023-07-13T13:23:19;3.07;;;1.10;;
30247;SDS011;17063;50.892;4.702;2023-07-13T13:25:48;3.30;;;1.67;;
30247;SDS011;17063;50.892;4.702;2023-07-13T13:28:18;3.43;;;1.37;;
30247;SDS011;17063;50.892;4.702;2023-07-13T13:30:48;2.83;;;1.30;;
30247;SDS011;17063;50.892;4.702;2023-07-13T13:33:18;2.23;;;1.50;;
30247;SDS011;17063;50.892;4.702;2023-07-13T13:35:48;3.27;;;1.70;;
30247;SDS011;17063;50.892;4.702;2023-07-13T13:38:17;4.50;;;1.40;;
30247;SDS011;17063;50.892;4.702;2023-07-13T13:40:47;3.37;;;1.50;;
30247;SDS011;17063;50.892;4.702;2023-07-13T13:43:22;4.13;;;1.83;;
30247;SDS011;17063;50.892;4.702;2023-07-13T13:45:56;3.83;;;1.37;;
30247;SDS011;17063;50.892;4.702;2023-07-13T13:48:33;6.13;;;1.70;;
30247;SDS011;17063;50.892;4.702;2023-07-13T13:51:13;5.03;;;1.47;;
30247;SDS011;17063;50.892;4.702;2023-07-13T13:53:46;4.43;;;1.73;;
30247;SDS011;17063;50.892;4.702;2023-07-13T13:56:14;2.27;;;1.30;;
30247;SDS011;17063;50.892;4.702;2023-07-13T13:58:42;3.23;;;1.30;;
30247;SDS011;17063;50.892;4.702;2023-07-13T14:01:19;3.13;;;1.30;;
30247;SDS011;17063;50.892;4.702;2023-07-13T14:04:06;2.90;;;1.23;;
30247;SDS011;17063;50.892;4.702;2023-07-13T14:06:44;4.30;;;1.80;;
30247;SDS011;17063;50.892;4.702;2023-07-13T14:09:13;2.90;;;1.30;;
30247;SDS011;17063;50.892;4.702;2023-07-13T14:11:43;2.93;;;1.43;;
30247;SDS011;17063;50.892;4.702;2023-07-13T14:17:34;6.37;;;1.60;;
30247;SDS011;17063;50.892;4.702;2023-07-13T14:20:11;2.73;;;1.30;;
30247;SDS011;17063;50.892;4.702;2023-07-13T14:22:39;1.63;;;1.17;;
30247;SDS011;17063;50.892;4.702;2023-07-13T14:25:07;2.30;;;1.00;;
30247;SDS011;17063;50.892;4.702;2023-07-13T14:27:38;3.00;;;1.30;;
30247;SDS011;17063;50.892;4.702;2023-07-13T14:33:19;1.60;;;1.20;;
30247;SDS011;17063;50.892;4.702;2023-07-13T14:39:15;3.63;;;1.70;;
30247;SDS011;17063;50.892;4.702;2023-07-13T14:41:52;4.70;;;1.40;;
30247;SDS011;17063;50.892;4.702;2023-07-13T14:44:30;2.50;;;0.93;;
30247;SDS011;17063;50.892;4.702;2023-07-13T15:04:57;3.17;;;1.47;;
30247;SDS011;17063;50.892;4.702;2023-07-13T15:07:25;5.37;;;1.50;;
30247;SDS011;17063;50.892;4.702;2023-07-13T15:09:55;5.17;;;1.30;;
30247;SDS011;17063;50.892;4.702;2023-07-13T15:12:22;5.93;;;1.40;;
30247;SDS011;17063;50.892;4.702;2023-07-13T15:14:49;3.90;;;1.37;;
30247;SDS011;17063;50.892;4.702;2023-07-13T15:17:38;6.07;;;1.43;;
30247;SDS011;17063;50.892;4.702;2023-07-13T15:20:27;4.70;;;1.40;;
30247;SDS011;17063;50.892;4.702;2023-07-13T15:23:09;2.87;;;1.40;;
30247;SDS011;17063;50.892;4.702;2023-07-13T15:25:40;2.93;;;1.53;;
30247;SDS011;17063;50.892;4.702;2023-07-13T15:28:11;1.97;;;1.17;;
30247;SDS011;17063;50.892;4.702;2023-07-13T15:30:40;2.47;;;1.10;;
30247;SDS011;17063;50.892;4.702;2023-07-13T15:33:31;2.57;;;1.30;;
30247;SDS011;17063;50.892;4.702;2023-07-13T15:36:00;3.47;;;1.50;;
30247;SDS011;17063;50.892;4.702;2023-07-13T15:38:28;4.37;;;1.53;;
30247;SDS011;17063;50.892;4.702;2023-07-13T15:40:56;5.30;;;1.60;;
30247;SDS011;17063;50.892;4.702;2023-07-13T15:43:25;4.33;;;1.90;;
30247;SDS011;17063;50.892;4.702;2023-07-13T15:45:53;3.90;;;1.40;;
30247;SDS011;17063;50.892;4.702;2023-07-13T15:48:25;6.23;;;1.53;;
30247;SDS011;17063;50.892;4.702;2023-07-13T15:50:55;2.27;;;1.20;;
30247;SDS011;17063;50.892;4.702;2023-07-13T15:53:31;3.00;;;1.23;;
30247;SDS011;17063;50.892;4.702;2023-07-13T15:56:01;2.57;;;1.37;;
30247;SDS011;17063;50.892;4.702;2023-07-13T15:58:29;3.37;;;1.47;;
30247;SDS011;17063;50.892;4.702;2023-07-13T16:00:58;4.33;;;1.60;;
30247;SDS011;17063;50.892;4.702;2023-07-13T16:03:25;3.47;;;1.20;;
30247;SDS011;17063;50.892;4.702;2023-07-13T16:05:52;4.17;;;1.40;;
30247;SDS011;17063;50.892;4.702;2023-07-13T16:08:23;3.97;;;1.47;;
30247;SDS011;17063;50.892;4.702;2023-07-13T16:10:52;2.87;;;1.43;;
30247;SDS011;17063;50.892;4.702;2023-07-13T16:13:20;4.87;;;1.40;;
30247;SDS011;17063;50.892;4.702;2023-07-13T16:15:47;2.70;;;1.50;;
30247;SDS011;17063;50.892;4.702;2023-07-13T16:18:15;3.07;;;1.50;;